createdAt,value
2017-09-06T00:00:31.462Z,13.80
2017-09-06T00:03:00.903Z,19.60
2017-09-06T00:05:31.213Z,12.20
2017-09-06T00:08:00.638Z,10.10
2017-09-06T00:10:30.837Z,13.23
2017-09-06T00:13:00.025Z,19.73
2017-09-06T00:15:29.789Z,10.97
2017-09-06T00:17:59.608Z,13.40
2017-09-06T00:20:29.409Z,10.77
2017-09-06T00:22:58.810Z,10.63
2017-09-06T00:25:28.142Z,11.57
2017-09-06T00:27:57.338Z,11.83
2017-09-06T00:30:26.929Z,16.63
2017-09-06T00:32:56.482Z,14.40
2017-09-06T00:35:25.811Z,18.80
2017-09-06T00:37:55.185Z,14.07
2017-09-06T00:40:25.973Z,13.10
2017-09-06T00:42:55.278Z,10.47
2017-09-06T00:45:24.542Z,11.53
2017-09-06T00:47:54.260Z,9.93
2017-09-06T00:50:24.457Z,10.17
2017-09-06T00:52:53.815Z,11.00
2017-09-06T00:55:23.390Z,10.93
2017-09-06T00:57:54.117Z,9.33
2017-09-06T01:00:23.677Z,14.10
2017-09-06T01:02:53.354Z,7.90
2017-09-06T01:05:22.774Z,11.30
2017-09-06T01:07:53.507Z,10.13
2017-09-06T01:10:22.993Z,12.27
2017-09-06T01:12:52.546Z,11.63
2017-09-06T01:15:21.960Z,11.80
2017-09-06T01:17:51.184Z,14.50
2017-09-06T01:20:21.455Z,11.97
2017-09-06T01:22:50.885Z,13.20
2017-09-06T01:25:23.291Z,10.33
2017-09-06T01:27:53.572Z,9.60
2017-09-06T01:30:23.191Z,8.37
2017-09-06T01:32:52.456Z,10.00
2017-09-06T01:35:21.962Z,28.23
2017-09-06T01:37:52.410Z,10.77
2017-09-06T01:40:21.654Z,12.70
2017-09-06T01:42:50.926Z,12.60
2017-09-06T01:45:20.288Z,14.53
2017-09-06T01:47:50.290Z,9.80
2017-09-06T01:50:19.645Z,16.60
2017-09-06T01:52:49.276Z,10.50
2017-09-06T01:55:21.602Z,9.97
2017-09-06T01:57:51.034Z,9.63
2017-09-06T02:00:21.014Z,12.80
2017-09-06T02:02:50.325Z,13.17
2017-09-06T02:05:19.883Z,10.47
2017-09-06T02:07:49.970Z,13.30
2017-09-06T02:10:19.219Z,10.73
2017-09-06T02:12:49.538Z,12.33
2017-09-06T02:15:18.747Z,11.10
2017-09-06T02:17:48.803Z,13.83
2017-09-06T02:20:19.796Z,9.63
2017-09-06T02:22:50.034Z,8.90
2017-09-06T02:25:20.136Z,13.33
2017-09-06T02:27:49.346Z,14.13
2017-09-06T02:30:19.485Z,10.83
2017-09-06T02:32:49.970Z,9.37
2017-09-06T02:35:19.710Z,10.30
2017-09-06T02:37:52.689Z,15.47
2017-09-06T02:40:21.966Z,14.70
2017-09-06T02:42:51.271Z,10.27
2017-09-06T02:45:20.598Z,13.70
2017-09-06T02:47:50.087Z,10.47
2017-09-06T02:50:20.227Z,10.10
2017-09-06T02:52:50.246Z,14.20
2017-09-06T02:55:20.375Z,11.90
2017-09-06T02:57:51.955Z,10.60
2017-09-06T03:00:33.087Z,12.70
2017-09-06T03:03:02.926Z,9.70
2017-09-06T03:05:32.285Z,8.10
2017-09-06T03:08:01.743Z,12.23
2017-09-06T03:10:31.231Z,9.27
2017-09-06T03:13:01.418Z,9.53
2017-09-06T03:15:31.125Z,11.67
2017-09-06T03:18:00.418Z,16.33
2017-09-06T03:20:29.916Z,15.10
2017-09-06T03:22:59.322Z,10.97
2017-09-06T03:25:28.681Z,10.67
2017-09-06T03:27:58.006Z,9.53
2017-09-06T03:30:27.188Z,8.70
2017-09-06T03:32:56.307Z,12.43
2017-09-06T03:35:25.554Z,11.77
2017-09-06T03:37:55.164Z,11.20
2017-09-06T03:40:24.461Z,17.07
2017-09-06T03:42:53.758Z,10.33
2017-09-06T03:45:23.240Z,19.17
2017-09-06T03:47:52.379Z,9.70
2017-09-06T03:50:22.784Z,9.83
2017-09-06T03:52:51.984Z,10.10
2017-09-06T03:55:21.299Z,10.13
2017-09-06T03:57:51.326Z,13.53
2017-09-06T04:00:21.460Z,10.37
2017-09-06T04:02:50.865Z,22.60
2017-09-06T04:05:20.342Z,11.73
2017-09-06T04:07:50.679Z,14.90
2017-09-06T04:10:20.850Z,12.90
2017-09-06T04:12:50.289Z,12.23
2017-09-06T04:15:20.412Z,14.80
2017-09-06T04:17:50.597Z,12.90
2017-09-06T04:20:21.083Z,58.37
2017-09-06T04:22:50.393Z,16.03
2017-09-06T04:25:19.788Z,14.40
2017-09-06T04:27:49.360Z,13.47
2017-09-06T04:30:18.774Z,13.70
2017-09-06T04:32:48.117Z,16.63
2017-09-06T04:35:17.631Z,16.97
2017-09-06T04:37:47.094Z,19.53
2017-09-06T04:40:17.755Z,15.07
2017-09-06T04:42:47.135Z,14.70
2017-09-06T04:45:17.398Z,18.13
2017-09-06T04:47:46.770Z,18.00
2017-09-06T04:50:16.122Z,25.87
2017-09-06T04:52:45.449Z,15.23
2017-09-06T04:55:15.410Z,15.97
2017-09-06T04:57:44.738Z,16.30
2017-09-06T05:00:14.140Z,16.93
2017-09-06T05:02:43.599Z,16.63
2017-09-06T05:05:12.977Z,16.03
2017-09-06T05:07:43.119Z,25.87
2017-09-06T05:10:12.571Z,21.43
2017-09-06T05:12:42.674Z,24.20
2017-09-06T05:15:11.998Z,23.90
2017-09-06T05:17:41.498Z,29.33
2017-09-06T05:20:10.895Z,24.10
2017-09-06T05:22:40.496Z,27.00
2017-09-06T05:25:09.854Z,25.20
2017-09-06T05:27:39.377Z,23.77
2017-09-06T05:30:08.754Z,29.20
2017-09-06T05:32:38.874Z,24.53
2017-09-06T05:35:08.489Z,47.17
2017-09-06T05:37:38.552Z,19.03
2017-09-06T05:40:07.866Z,28.13
2017-09-06T05:42:37.936Z,21.83
2017-09-06T05:45:08.223Z,23.80
2017-09-06T05:47:38.296Z,29.90
2017-09-06T05:50:08.745Z,25.87
2017-09-06T05:52:38.504Z,35.30
2017-09-06T05:55:09.163Z,29.00
2017-09-06T05:57:40.786Z,29.67
2017-09-06T06:00:11.488Z,26.27
2017-09-06T06:02:42.000Z,23.73
2017-09-06T06:05:12.685Z,30.97
2017-09-06T06:07:42.749Z,26.97
2017-09-06T06:10:12.238Z,37.77
2017-09-06T06:12:42.055Z,20.00
2017-09-06T06:15:11.423Z,20.73
2017-09-06T06:17:41.604Z,32.10
2017-09-06T06:20:10.950Z,21.87
2017-09-06T06:22:41.272Z,23.23
2017-09-06T06:25:11.660Z,23.80
2017-09-06T06:27:41.184Z,35.50
2017-09-06T06:30:10.550Z,25.80
2017-09-06T06:32:40.347Z,25.73
2017-09-06T06:35:10.653Z,32.30
2017-09-06T06:37:40.205Z,31.23
2017-09-06T06:40:09.682Z,40.67
2017-09-06T06:42:39.159Z,34.07
2017-09-06T06:45:09.380Z,28.73
2017-09-06T06:47:39.330Z,25.73
2017-09-06T06:50:08.804Z,22.13
2017-09-06T06:52:38.115Z,25.00
2017-09-06T06:55:08.479Z,25.37
2017-09-06T06:57:38.370Z,29.27
2017-09-06T07:00:07.767Z,28.23
2017-09-06T07:02:37.322Z,21.30
2017-09-06T07:05:07.063Z,25.53
2017-09-06T07:07:36.599Z,18.27
2017-09-06T07:10:05.859Z,27.53
2017-09-06T07:12:35.286Z,20.30
2017-09-06T07:15:04.770Z,25.27
2017-09-06T07:17:35.102Z,20.20
2017-09-06T07:20:05.326Z,23.80
2017-09-06T07:22:35.152Z,17.73
2017-09-06T07:25:04.640Z,17.90
2017-09-06T07:27:34.822Z,13.10
2017-09-06T07:30:04.163Z,17.67
2017-09-06T07:32:33.529Z,13.30
2017-09-06T07:35:02.827Z,24.93
2017-09-06T07:37:32.219Z,20.57
2017-09-06T07:40:01.668Z,18.53
2017-09-06T07:42:31.046Z,14.37
2017-09-06T07:45:00.439Z,24.83
2017-09-06T07:47:29.697Z,21.83
2017-09-06T07:49:59.150Z,19.63
2017-09-06T07:52:28.445Z,27.27
2017-09-06T07:54:58.077Z,26.23
2017-09-06T07:57:29.016Z,26.00
2017-09-06T07:59:58.458Z,18.97
2017-09-06T08:02:28.924Z,23.03
2017-09-06T08:04:58.457Z,21.90
2017-09-06T08:07:28.596Z,22.10
2017-09-06T08:09:57.882Z,28.33
2017-09-06T08:12:27.348Z,20.97
2017-09-06T08:14:56.896Z,30.03
2017-09-06T08:17:26.641Z,15.60
2017-09-06T08:19:56.078Z,26.43
2017-09-06T08:22:25.328Z,30.27
2017-09-06T08:24:54.657Z,21.47
2017-09-06T08:27:24.034Z,26.90
2017-09-06T08:29:53.412Z,54.17
2017-09-06T08:32:23.651Z,26.47
2017-09-06T08:34:53.456Z,22.23
2017-09-06T08:37:22.772Z,22.63
2017-09-06T08:39:52.360Z,22.93
2017-09-06T08:42:21.919Z,19.90
2017-09-06T08:44:51.982Z,22.47
2017-09-06T08:47:23.286Z,32.77
2017-09-06T08:49:52.720Z,17.87
2017-09-06T08:52:23.056Z,30.47
2017-09-06T08:54:54.060Z,26.90
2017-09-06T08:57:24.290Z,23.23
2017-09-06T08:59:53.831Z,27.67
2017-09-06T09:02:23.231Z,18.17
2017-09-06T09:04:52.715Z,31.53
2017-09-06T09:07:22.062Z,33.73
2017-09-06T09:09:51.374Z,21.47
2017-09-06T09:12:20.668Z,36.17
2017-09-06T09:14:51.367Z,38.03
2017-09-06T09:17:21.574Z,40.33
2017-09-06T09:20:05.053Z,16.23
2017-09-06T09:22:34.607Z,20.00
2017-09-06T09:25:11.953Z,29.00
2017-09-06T09:27:41.432Z,19.23
2017-09-06T09:30:10.943Z,40.97
2017-09-06T09:32:40.431Z,31.47
2017-09-06T09:35:10.671Z,31.77
2017-09-06T09:37:43.703Z,19.60
2017-09-06T09:40:13.455Z,22.47
2017-09-06T09:42:43.285Z,31.83
2017-09-06T09:45:12.839Z,22.23
2017-09-06T09:47:42.187Z,48.77
2017-09-06T09:50:11.632Z,23.20
2017-09-06T09:52:41.072Z,35.30
2017-09-06T09:55:13.130Z,36.80
2017-09-06T09:57:43.511Z,33.30
2017-09-06T10:00:13.382Z,24.73
2017-09-06T10:02:42.802Z,37.07
2017-09-06T10:05:12.310Z,31.10
2017-09-06T10:07:42.185Z,20.80
2017-09-06T10:10:12.001Z,18.87
2017-09-06T10:12:41.376Z,17.73
2017-09-06T10:15:10.884Z,29.97
2017-09-06T10:17:40.122Z,26.97
2017-09-06T10:20:10.286Z,23.50
2017-09-06T10:22:40.188Z,21.70
2017-09-06T10:25:09.655Z,20.60
2017-09-06T10:27:40.271Z,18.57
2017-09-06T10:30:10.722Z,20.50
2017-09-06T10:32:40.730Z,19.70
2017-09-06T10:35:11.485Z,18.77
2017-09-06T10:37:41.100Z,25.17
2017-09-06T10:40:10.733Z,19.40
2017-09-06T10:42:40.627Z,19.03
2017-09-06T10:45:12.496Z,22.90
2017-09-06T10:47:42.124Z,16.30
2017-09-06T10:50:11.788Z,24.97
2017-09-06T10:52:42.158Z,18.37
2017-09-06T10:55:11.953Z,20.77
2017-09-06T10:57:41.508Z,18.20
2017-09-06T11:00:11.095Z,18.80
2017-09-06T11:02:42.479Z,29.83
2017-09-06T11:05:14.346Z,19.97
2017-09-06T11:07:44.668Z,16.60
2017-09-06T11:10:14.157Z,20.93
2017-09-06T11:12:44.331Z,20.67
2017-09-06T11:15:13.856Z,23.40
2017-09-06T11:17:43.193Z,22.13
2017-09-06T11:20:12.666Z,25.37
2017-09-06T11:22:42.522Z,14.77
2017-09-06T11:25:12.981Z,15.10
2017-09-06T11:27:43.014Z,20.10
2017-09-06T11:30:13.094Z,16.20
2017-09-06T11:32:42.594Z,16.63
2017-09-06T11:35:12.404Z,20.77
2017-09-06T11:38:13.365Z,25.00
2017-09-06T11:40:42.925Z,31.47
2017-09-06T11:43:12.376Z,19.70
2017-09-06T11:45:42.147Z,29.27
2017-09-06T11:48:12.653Z,21.40
2017-09-06T11:50:42.205Z,21.70
2017-09-06T11:53:11.746Z,24.50
2017-09-06T11:55:41.279Z,21.87
2017-09-06T11:58:11.235Z,18.70
2017-09-06T12:00:40.828Z,17.60
2017-09-06T12:03:10.328Z,23.67
2017-09-06T12:05:40.777Z,17.30
2017-09-06T12:08:10.240Z,15.40
2017-09-06T12:10:39.808Z,26.27
2017-09-06T12:13:09.933Z,22.73
2017-09-06T12:15:39.568Z,19.83
2017-09-06T12:18:11.042Z,16.10
2017-09-06T12:20:41.311Z,20.90
2017-09-06T12:23:10.825Z,28.13
2017-09-06T12:25:40.577Z,24.80
2017-09-06T12:28:10.114Z,20.50
2017-09-06T12:30:39.638Z,31.00
2017-09-06T12:33:08.935Z,23.67
2017-09-06T12:35:38.423Z,20.07
2017-09-06T12:38:07.825Z,15.10
2017-09-06T12:40:37.366Z,13.60
2017-09-06T12:43:07.131Z,26.93
2017-09-06T12:45:36.572Z,22.63
2017-09-06T12:48:06.015Z,22.10
2017-09-06T12:50:36.012Z,17.63
2017-09-06T12:53:06.033Z,30.63
2017-09-06T12:55:36.120Z,14.90
2017-09-06T12:58:14.515Z,26.23
2017-09-06T13:01:05.100Z,17.07
2017-09-06T13:03:35.893Z,28.80
2017-09-06T13:06:06.970Z,15.03
2017-09-06T13:08:39.108Z,21.73
2017-09-06T13:11:08.624Z,19.73
2017-09-06T13:13:38.998Z,23.50
2017-09-06T13:16:08.505Z,21.27
2017-09-06T13:18:38.324Z,19.70
2017-09-06T13:21:07.814Z,24.63
2017-09-06T13:23:37.700Z,31.03
2017-09-06T13:26:07.380Z,23.33
2017-09-06T13:28:36.847Z,25.03
2017-09-06T13:31:06.912Z,27.03
2017-09-06T13:33:36.740Z,18.67
2017-09-06T13:36:06.299Z,23.90
2017-09-06T13:38:35.967Z,26.23
2017-09-06T13:41:07.735Z,24.50
2017-09-06T13:43:37.514Z,21.00
2017-09-06T13:46:06.963Z,19.40
2017-09-06T13:48:36.442Z,17.87
2017-09-06T13:51:06.840Z,18.20
2017-09-06T13:53:36.884Z,25.67
2017-09-06T13:56:06.723Z,22.80
2017-09-06T13:58:37.663Z,19.77
2017-09-06T14:01:08.007Z,21.00
2017-09-06T14:03:37.496Z,24.00
2017-09-06T14:06:07.158Z,25.40
2017-09-06T14:08:37.283Z,23.93
2017-09-06T14:11:07.732Z,23.80
2017-09-06T14:13:37.177Z,33.37
2017-09-06T14:16:08.749Z,27.83
2017-09-06T14:18:38.666Z,28.50
2017-09-06T14:21:08.840Z,26.33
2017-09-06T14:23:38.254Z,19.73
2017-09-06T14:26:07.809Z,26.80
2017-09-06T14:28:38.411Z,28.27
2017-09-06T14:31:08.139Z,30.80
2017-09-06T14:33:37.482Z,31.80
2017-09-06T14:36:07.847Z,29.90
2017-09-06T14:38:37.461Z,133.60
2017-09-06T14:41:07.180Z,26.13
2017-09-06T14:43:36.730Z,28.67
2017-09-06T14:46:06.947Z,28.67
2017-09-06T14:48:37.361Z,28.97
2017-09-06T14:51:07.649Z,22.33
2017-09-06T14:53:37.135Z,39.30
2017-09-06T14:56:07.951Z,39.43
2017-09-06T14:58:39.084Z,37.13
2017-09-06T15:01:09.758Z,18.73
2017-09-06T15:03:39.803Z,27.63
2017-09-06T15:06:10.786Z,20.00
2017-09-06T15:08:40.308Z,27.47
2017-09-06T15:11:09.921Z,33.33
2017-09-06T15:13:39.431Z,29.67
2017-09-06T15:16:13.602Z,27.77
2017-09-06T15:18:44.812Z,25.40
2017-09-06T15:21:14.400Z,26.40
2017-09-06T15:23:44.506Z,29.33
2017-09-06T15:26:13.944Z,60.53
2017-09-06T15:28:43.429Z,24.27
2017-09-06T15:31:13.515Z,44.90
2017-09-06T15:33:44.298Z,32.00
2017-09-06T15:36:13.729Z,35.33
2017-09-06T15:38:44.031Z,32.57
2017-09-06T15:41:13.578Z,32.80
2017-09-06T15:43:44.234Z,38.70
2017-09-06T15:46:14.440Z,27.93
2017-09-06T15:48:47.626Z,31.97
2017-09-06T15:51:20.461Z,33.93
2017-09-06T15:53:51.356Z,31.77
2017-09-06T15:56:22.885Z,32.33
2017-09-06T15:58:52.612Z,31.70
2017-09-06T16:01:26.094Z,29.83
2017-09-06T16:03:56.663Z,26.03
2017-09-06T16:06:26.311Z,31.93
2017-09-06T16:08:56.126Z,29.77
2017-09-06T16:11:26.261Z,50.03
2017-09-06T16:13:56.536Z,34.37
2017-09-06T16:16:26.913Z,48.70
2017-09-06T16:18:58.527Z,34.58
2017-09-06T16:21:31.281Z,26.53
2017-09-06T16:24:01.231Z,50.17
2017-09-06T16:26:32.410Z,37.73
2017-09-06T16:29:04.441Z,42.47
2017-09-06T16:31:38.850Z,37.77
2017-09-06T16:34:17.036Z,45.23
2017-09-06T16:36:48.615Z,52.30
2017-09-06T16:39:18.773Z,33.00
2017-09-06T16:42:11.021Z,34.10
2017-09-06T16:44:40.888Z,38.17
2017-09-06T16:47:13.356Z,32.50
2017-09-06T16:49:43.783Z,51.07
2017-09-06T16:52:15.088Z,53.20
2017-09-06T16:54:48.362Z,28.13
2017-09-06T16:58:31.197Z,35.90
2017-09-06T17:01:17.166Z,33.70
2017-09-06T17:03:48.039Z,38.93
2017-09-06T17:06:20.623Z,37.60
2017-09-06T17:08:51.238Z,44.67
2017-09-06T17:11:22.558Z,54.60
2017-09-06T17:13:52.477Z,37.80
2017-09-06T17:16:23.955Z,39.47
2017-09-06T17:18:57.523Z,35.07
2017-09-06T17:21:31.757Z,33.67
2017-09-06T17:24:02.849Z,40.97
2017-09-06T17:26:33.324Z,35.37
2017-09-06T17:29:07.114Z,31.93
2017-09-06T17:31:41.676Z,30.80
2017-09-06T17:34:13.883Z,26.67
2017-09-06T17:36:45.338Z,38.20
2017-09-06T17:39:15.527Z,38.73
2017-09-06T17:41:56.998Z,44.27
2017-09-06T17:44:28.058Z,42.47
2017-09-06T17:49:38.577Z,43.63
2017-09-06T17:52:10.506Z,37.70
2017-09-06T17:54:40.675Z,23.70
2017-09-06T17:57:16.702Z,31.20
2017-09-06T17:59:49.385Z,33.03
2017-09-06T18:02:19.867Z,42.13
2017-09-06T18:04:51.511Z,36.83
2017-09-06T18:07:34.453Z,37.00
2017-09-06T18:10:05.326Z,34.53
2017-09-06T18:12:36.660Z,34.43
2017-09-06T18:15:07.414Z,40.00
2017-09-06T18:17:37.733Z,36.07
2017-09-06T18:20:08.594Z,30.93
2017-09-06T18:22:41.423Z,34.73
2017-09-06T18:27:57.266Z,41.47
2017-09-06T18:30:31.203Z,39.27
2017-09-06T18:33:04.964Z,45.53
2017-09-06T18:35:49.602Z,34.57
2017-09-06T18:38:22.941Z,44.33
2017-09-06T18:41:02.147Z,30.20
2017-09-06T18:43:32.321Z,33.30
2017-09-06T18:46:06.148Z,44.93
2017-09-06T18:48:36.576Z,37.53
2017-09-06T18:51:06.252Z,34.97
2017-09-06T18:53:35.826Z,35.40
2017-09-06T18:56:05.364Z,32.93
2017-09-06T18:58:36.054Z,31.60
2017-09-06T19:01:05.804Z,41.20
2017-09-06T19:03:39.477Z,32.03
2017-09-06T19:06:09.347Z,61.03
2017-09-06T19:08:39.062Z,64.37
2017-09-06T19:11:09.765Z,43.57
2017-09-06T19:13:41.959Z,38.13
2017-09-06T19:16:13.724Z,54.87
2017-09-06T19:18:43.404Z,44.40
2017-09-06T19:21:13.043Z,39.10
2017-09-06T19:23:44.117Z,30.63
2017-09-06T19:26:14.682Z,44.20
2017-09-06T19:28:44.199Z,33.53
2017-09-06T19:31:14.376Z,51.27
2017-09-06T19:33:45.193Z,73.07
2017-09-06T19:36:15.205Z,60.37
2017-09-06T19:38:46.463Z,42.73
2017-09-06T19:41:17.973Z,35.37
2017-09-06T19:47:12.499Z,42.97
2017-09-06T19:49:44.610Z,42.53
2017-09-06T19:52:20.006Z,40.03
2017-09-06T19:54:51.679Z,34.47
2017-09-06T19:57:23.037Z,45.10
2017-09-06T20:00:00.364Z,58.63
2017-09-06T20:02:31.063Z,52.23
2017-09-06T20:05:02.982Z,31.13
2017-09-06T20:07:34.063Z,32.67
2017-09-06T20:10:05.203Z,45.90
2017-09-06T20:12:37.369Z,36.27
2017-09-06T20:15:07.846Z,37.27
2017-09-06T20:17:41.524Z,33.53
2017-09-06T20:20:13.354Z,43.30
2017-09-06T20:22:43.135Z,52.63
2017-09-06T20:25:43.834Z,40.43
2017-09-06T20:28:14.375Z,34.50
2017-09-06T20:30:44.870Z,63.07
2017-09-06T20:33:26.132Z,60.37
2017-09-06T20:35:59.380Z,39.13
2017-09-06T20:38:29.848Z,51.93
2017-09-06T20:41:01.551Z,43.47
2017-09-06T20:43:34.832Z,57.17
2017-09-06T20:46:20.201Z,50.73
2017-09-06T20:48:50.195Z,41.00
2017-09-06T20:51:22.196Z,38.67
2017-09-06T20:53:54.023Z,36.27
2017-09-06T20:56:31.940Z,44.57
2017-09-06T20:59:01.787Z,49.93
2017-09-06T21:01:47.308Z,44.10
2017-09-06T21:04:18.596Z,46.40
2017-09-06T21:06:48.031Z,38.43
2017-09-06T21:09:18.272Z,49.47
2017-09-06T21:11:52.659Z,41.47
2017-09-06T21:14:23.134Z,59.80
2017-09-06T21:16:52.533Z,45.60
2017-09-06T21:19:22.193Z,57.43
2017-09-06T21:21:52.406Z,42.40
2017-09-06T21:24:22.188Z,45.20
2017-09-06T21:26:52.692Z,45.47
2017-09-06T21:29:24.995Z,41.03
2017-09-06T21:31:55.138Z,73.07
2017-09-06T21:34:26.150Z,62.33
2017-09-06T21:36:55.851Z,74.70
2017-09-06T21:39:25.394Z,52.17
2017-09-06T21:41:55.134Z,72.10
2017-09-06T21:44:24.986Z,34.13
2017-09-06T21:46:55.046Z,43.57
2017-09-06T21:49:25.273Z,41.83
2017-09-06T21:51:56.222Z,53.67
2017-09-06T21:54:25.966Z,40.60
2017-09-06T21:56:56.811Z,43.33
2017-09-06T21:59:27.466Z,50.50
2017-09-06T22:01:58.762Z,57.40
2017-09-06T22:04:28.752Z,63.67
2017-09-06T22:06:58.841Z,59.60
2017-09-06T22:09:30.015Z,52.03
2017-09-06T22:14:50.003Z,40.47
2017-09-06T22:17:24.292Z,56.67
2017-09-06T22:20:13.211Z,62.43
2017-09-06T22:22:50.779Z,52.67
2017-09-06T22:25:29.119Z,77.00
2017-09-06T22:28:02.594Z,65.23
2017-09-06T22:30:35.067Z,64.63
2017-09-06T22:33:13.209Z,42.63
2017-09-06T22:35:46.407Z,78.23
2017-09-06T22:38:18.143Z,78.37
2017-09-06T22:41:05.045Z,76.43
2017-09-06T22:43:37.951Z,79.80
2017-09-06T22:46:10.424Z,73.70
2017-09-06T22:48:40.438Z,70.27
2017-09-06T22:51:10.601Z,54.40
2017-09-06T22:53:40.688Z,50.30
2017-09-06T22:56:10.679Z,46.60
2017-09-06T22:58:41.293Z,69.70
2017-09-06T23:01:11.330Z,74.33
2017-09-06T23:03:41.597Z,54.30
2017-09-06T23:06:13.142Z,68.60
2017-09-06T23:08:42.835Z,58.27
2017-09-06T23:11:12.208Z,68.90
2017-09-06T23:13:41.725Z,65.43
2017-09-06T23:16:12.468Z,61.60
2017-09-06T23:18:43.437Z,64.17
2017-09-06T23:21:43.587Z,53.93
2017-09-06T23:24:13.254Z,70.37
2017-09-06T23:26:42.834Z,62.10
2017-09-06T23:29:12.043Z,61.23
2017-09-06T23:31:42.230Z,66.23
2017-09-06T23:34:12.309Z,82.20
2017-09-06T23:36:41.651Z,50.53
2017-09-06T23:39:11.466Z,35.47
2017-09-06T23:41:42.343Z,68.27
2017-09-06T23:44:11.843Z,60.27
2017-09-06T23:46:41.226Z,67.77
2017-09-06T23:49:10.937Z,51.47
2017-09-06T23:51:41.238Z,45.33
2017-09-06T23:54:31.540Z,58.83
2017-09-06T23:57:02.412Z,65.23
2017-09-06T23:59:31.704Z,55.07
